Steep Falls, Maine
Current Conditions -  °F | °C
As of 3:51 PM on Friday 31 Oct 2014 (Local Time) from KPWM Reporting Station
Scattered Clouds Scattered Clouds  
Wind Chill: 51°   Ceiling: Unl
Heat Index: 51°   Visibility: 10mi
Dew Point: 33°   Wind: 5mph
Humidity: 50%   Direction: 120°ESE
Pressure: 30.02"   Gusts: NA
Location:  43.79°N, 70.65°W
Report Text: KPWM 311951Z 12004KT 10SM SCT050 SCT150 11/01 A3002 RMK AO2 SLP165 T01060006
Loading
Personal Weather Stations






























Interactive Weather Map
Tropical Storm Tracking
New forecast layout! Learn more

10-Day Weather Forecast

Advertisements
Track Severe Weather on mobile